sensor_id;sensor_type;location;lat;lon;timestamp;P1;durP1;ratioP1;P2;durP2;ratioP2
7410;SDS011;3747;48.628;9.058;2024-02-15T00:02:02;2.43;;;1.17;;
7410;SDS011;3747;48.628;9.058;2024-02-15T00:04:28;1.90;;;1.03;;
7410;SDS011;3747;48.628;9.058;2024-02-15T00:06:55;3.00;;;1.10;;
7410;SDS011;3747;48.628;9.058;2024-02-15T00:09:23;1.30;;;0.90;;
7410;SDS011;3747;48.628;9.058;2024-02-15T00:11:50;1.20;;;1.10;;
7410;SDS011;3747;48.628;9.058;2024-02-15T00:14:16;1.27;;;1.13;;
7410;SDS011;3747;48.628;9.058;2024-02-15T00:16:43;1.97;;;1.00;;
7410;SDS011;3747;48.628;9.058;2024-02-15T00:19:11;2.83;;;1.23;;
7410;SDS011;3747;48.628;9.058;2024-02-15T00:21:42;1.33;;;1.00;;
7410;SDS011;3747;48.628;9.058;2024-02-15T00:24:09;1.30;;;1.00;;
7410;SDS011;3747;48.628;9.058;2024-02-15T00:26:37;1.73;;;0.90;;
7410;SDS011;3747;48.628;9.058;2024-02-15T00:29:04;1.27;;;1.10;;
7410;SDS011;3747;48.628;9.058;2024-02-15T00:31:30;1.90;;;1.10;;
7410;SDS011;3747;48.628;9.058;2024-02-15T00:33:57;5.20;;;1.10;;
7410;SDS011;3747;48.628;9.058;2024-02-15T00:36:24;3.30;;;1.20;;
7410;SDS011;3747;48.628;9.058;2024-02-15T00:38:51;1.80;;;0.90;;
7410;SDS011;3747;48.628;9.058;2024-02-15T00:41:17;2.00;;;0.80;;
7410;SDS011;3747;48.628;9.058;2024-02-15T00:43:47;3.77;;;1.20;;
7410;SDS011;3747;48.628;9.058;2024-02-15T00:46:15;1.43;;;0.83;;
7410;SDS011;3747;48.628;9.058;2024-02-15T00:48:42;1.40;;;1.00;;
7410;SDS011;3747;48.628;9.058;2024-02-15T00:51:08;1.00;;;0.93;;
7410;SDS011;3747;48.628;9.058;2024-02-15T00:53:35;2.53;;;1.10;;
7410;SDS011;3747;48.628;9.058;2024-02-15T00:56:02;2.13;;;1.10;;
7410;SDS011;3747;48.628;9.058;2024-02-15T00:58:29;1.70;;;1.23;;
7410;SDS011;3747;48.628;9.058;2024-02-15T01:00:57;2.87;;;1.20;;
7410;SDS011;3747;48.628;9.058;2024-02-15T01:03:24;2.27;;;1.10;;
7410;SDS011;3747;48.628;9.058;2024-02-15T01:05:51;1.93;;;1.17;;
7410;SDS011;3747;48.628;9.058;2024-02-15T01:08:18;1.10;;;1.00;;
7410;SDS011;3747;48.628;9.058;2024-02-15T01:10:45;1.63;;;1.10;;
7410;SDS011;3747;48.628;9.058;2024-02-15T01:13:12;1.20;;;1.10;;
7410;SDS011;3747;48.628;9.058;2024-02-15T01:15:38;4.33;;;1.73;;
7410;SDS011;3747;48.628;9.058;2024-02-15T01:18:08;1.83;;;1.00;;
7410;SDS011;3747;48.628;9.058;2024-02-15T01:20:35;2.17;;;0.97;;
7410;SDS011;3747;48.628;9.058;2024-02-15T01:23:02;1.70;;;1.20;;
7410;SDS011;3747;48.628;9.058;2024-02-15T01:25:30;3.50;;;1.30;;
7410;SDS011;3747;48.628;9.058;2024-02-15T01:27:56;1.50;;;1.00;;
7410;SDS011;3747;48.628;9.058;2024-02-15T01:30:23;2.50;;;1.20;;
7410;SDS011;3747;48.628;9.058;2024-02-15T01:32:50;1.20;;;1.00;;
7410;SDS011;3747;48.628;9.058;2024-02-15T01:35:18;1.53;;;1.10;;
7410;SDS011;3747;48.628;9.058;2024-02-15T01:37:44;1.23;;;1.13;;
7410;SDS011;3747;48.628;9.058;2024-02-15T01:40:11;2.40;;;1.37;;
7410;SDS011;3747;48.628;9.058;2024-02-15T01:42:38;4.03;;;1.53;;
7410;SDS011;3747;48.628;9.058;2024-02-15T01:45:05;2.27;;;1.43;;
7410;SDS011;3747;48.628;9.058;2024-02-15T01:47:35;2.67;;;1.57;;
7410;SDS011;3747;48.628;9.058;2024-02-15T01:50:02;2.27;;;1.13;;
7410;SDS011;3747;48.628;9.058;2024-02-15T01:52:30;2.73;;;1.00;;
7410;SDS011;3747;48.628;9.058;2024-02-15T01:54:57;1.53;;;1.10;;
7410;SDS011;3747;48.628;9.058;2024-02-15T01:57:24;3.27;;;1.20;;
7410;SDS011;3747;48.628;9.058;2024-02-15T01:59:50;2.73;;;0.97;;
7410;SDS011;3747;48.628;9.058;2024-02-15T02:02:18;1.23;;;0.90;;
7410;SDS011;3747;48.628;9.058;2024-02-15T02:04:48;1.37;;;1.27;;
7410;SDS011;3747;48.628;9.058;2024-02-15T02:07:16;2.03;;;1.00;;
7410;SDS011;3747;48.628;9.058;2024-02-15T02:09:43;2.30;;;1.20;;
7410;SDS011;3747;48.628;9.058;2024-02-15T02:12:12;5.13;;;1.20;;
7410;SDS011;3747;48.628;9.058;2024-02-15T02:14:39;2.03;;;0.90;;
7410;SDS011;3747;48.628;9.058;2024-02-15T02:17:12;1.87;;;1.10;;
7410;SDS011;3747;48.628;9.058;2024-02-15T02:19:39;1.67;;;1.27;;
7410;SDS011;3747;48.628;9.058;2024-02-15T02:22:07;0.93;;;0.93;;
7410;SDS011;3747;48.628;9.058;2024-02-15T02:24:39;2.63;;;1.20;;
7410;SDS011;3747;48.628;9.058;2024-02-15T02:27:13;0.80;;;0.80;;
7410;SDS011;3747;48.628;9.058;2024-02-15T02:29:42;2.97;;;1.10;;
7410;SDS011;3747;48.628;9.058;2024-02-15T02:32:11;3.03;;;1.10;;
7410;SDS011;3747;48.628;9.058;2024-02-15T02:34:38;1.87;;;1.13;;
7410;SDS011;3747;48.628;9.058;2024-02-15T02:37:05;1.33;;;1.00;;
7410;SDS011;3747;48.628;9.058;2024-02-15T02:39:33;2.07;;;1.50;;
7410;SDS011;3747;48.628;9.058;2024-02-15T02:41:59;1.20;;;1.10;;
7410;SDS011;3747;48.628;9.058;2024-02-15T02:44:27;1.30;;;1.20;;
7410;SDS011;3747;48.628;9.058;2024-02-15T02:46:54;3.40;;;1.10;;
7410;SDS011;3747;48.628;9.058;2024-02-15T02:49:21;1.70;;;1.20;;
7410;SDS011;3747;48.628;9.058;2024-02-15T02:51:48;1.23;;;0.80;;
7410;SDS011;3747;48.628;9.058;2024-02-15T02:54:15;2.37;;;1.00;;
7410;SDS011;3747;48.628;9.058;2024-02-15T02:56:42;1.40;;;0.93;;
7410;SDS011;3747;48.628;9.058;2024-02-15T02:59:10;1.70;;;1.20;;
7410;SDS011;3747;48.628;9.058;2024-02-15T03:01:39;2.03;;;1.30;;
7410;SDS011;3747;48.628;9.058;2024-02-15T03:04:06;2.60;;;1.03;;
7410;SDS011;3747;48.628;9.058;2024-02-15T03:06:32;2.17;;;1.33;;
7410;SDS011;3747;48.628;9.058;2024-02-15T03:09:00;4.23;;;1.10;;
7410;SDS011;3747;48.628;9.058;2024-02-15T03:11:32;2.80;;;1.07;;
7410;SDS011;3747;48.628;9.058;2024-02-15T03:13:58;3.13;;;1.47;;
7410;SDS011;3747;48.628;9.058;2024-02-15T03:16:25;2.07;;;0.90;;
7410;SDS011;3747;48.628;9.058;2024-02-15T03:18:53;2.30;;;1.27;;
7410;SDS011;3747;48.628;9.058;2024-02-15T03:21:20;1.10;;;1.00;;
7410;SDS011;3747;48.628;9.058;2024-02-15T03:23:47;2.63;;;1.70;;
7410;SDS011;3747;48.628;9.058;2024-02-15T03:26:13;2.47;;;1.30;;
7410;SDS011;3747;48.628;9.058;2024-02-15T03:28:40;2.30;;;1.20;;
7410;SDS011;3747;48.628;9.058;2024-02-15T03:31:07;2.27;;;1.23;;
7410;SDS011;3747;48.628;9.058;2024-02-15T03:33:34;4.43;;;1.57;;
7410;SDS011;3747;48.628;9.058;2024-02-15T03:36:04;2.13;;;0.90;;
7410;SDS011;3747;48.628;9.058;2024-02-15T03:38:31;2.53;;;1.23;;
7410;SDS011;3747;48.628;9.058;2024-02-15T03:40:57;1.90;;;1.37;;
7410;SDS011;3747;48.628;9.058;2024-02-15T03:43:24;1.80;;;1.10;;
7410;SDS011;3747;48.628;9.058;2024-02-15T03:45:51;2.90;;;1.37;;
7410;SDS011;3747;48.628;9.058;2024-02-15T03:48:18;3.50;;;1.13;;
7410;SDS011;3747;48.628;9.058;2024-02-15T03:50:45;2.00;;;1.20;;
7410;SDS011;3747;48.628;9.058;2024-02-15T03:53:14;1.57;;;1.27;;
7410;SDS011;3747;48.628;9.058;2024-02-15T03:55:41;2.33;;;1.00;;
7410;SDS011;3747;48.628;9.058;2024-02-15T03:58:08;2.30;;;1.20;;
7410;SDS011;3747;48.628;9.058;2024-02-15T04:00:35;2.30;;;1.30;;
7410;SDS011;3747;48.628;9.058;2024-02-15T04:03:04;3.17;;;1.20;;
7410;SDS011;3747;48.628;9.058;2024-02-15T04:05:30;4.67;;;1.50;;
7410;SDS011;3747;48.628;9.058;2024-02-15T04:07:57;3.70;;;1.40;;
7410;SDS011;3747;48.628;9.058;2024-02-15T04:10:28;4.77;;;2.50;;
7410;SDS011;3747;48.628;9.058;2024-02-15T04:12:55;1.47;;;1.17;;
7410;SDS011;3747;48.628;9.058;2024-02-15T04:15:23;2.07;;;1.20;;
7410;SDS011;3747;48.628;9.058;2024-02-15T04:17:49;1.90;;;1.20;;
7410;SDS011;3747;48.628;9.058;2024-02-15T04:20:20;2.23;;;1.00;;
7410;SDS011;3747;48.628;9.058;2024-02-15T04:22:47;2.27;;;1.20;;
7410;SDS011;3747;48.628;9.058;2024-02-15T04:25:15;2.93;;;1.07;;
7410;SDS011;3747;48.628;9.058;2024-02-15T04:27:43;2.40;;;1.10;;
7410;SDS011;3747;48.628;9.058;2024-02-15T04:30:11;1.60;;;1.00;;
7410;SDS011;3747;48.628;9.058;2024-02-15T04:32:38;2.60;;;0.63;;
7410;SDS011;3747;48.628;9.058;2024-02-15T04:35:05;1.43;;;0.90;;
7410;SDS011;3747;48.628;9.058;2024-02-15T04:37:32;2.57;;;1.27;;
7410;SDS011;3747;48.628;9.058;2024-02-15T04:39:59;2.37;;;1.23;;
7410;SDS011;3747;48.628;9.058;2024-02-15T04:42:33;2.07;;;1.57;;
7410;SDS011;3747;48.628;9.058;2024-02-15T04:45:02;2.10;;;1.10;;
7410;SDS011;3747;48.628;9.058;2024-02-15T04:47:30;1.67;;;1.20;;
7410;SDS011;3747;48.628;9.058;2024-02-15T04:49:57;1.17;;;1.07;;
7410;SDS011;3747;48.628;9.058;2024-02-15T04:52:23;2.43;;;1.20;;
7410;SDS011;3747;48.628;9.058;2024-02-15T04:54:50;1.70;;;1.20;;
7410;SDS011;3747;48.628;9.058;2024-02-15T04:57:19;3.00;;;1.27;;
7410;SDS011;3747;48.628;9.058;2024-02-15T04:59:45;2.23;;;1.30;;
7410;SDS011;3747;48.628;9.058;2024-02-15T05:02:14;2.57;;;1.40;;
7410;SDS011;3747;48.628;9.058;2024-02-15T05:04:42;1.80;;;1.20;;
7410;SDS011;3747;48.628;9.058;2024-02-15T05:07:09;2.03;;;1.40;;
7410;SDS011;3747;48.628;9.058;2024-02-15T05:09:36;1.67;;;1.40;;
7410;SDS011;3747;48.628;9.058;2024-02-15T05:12:03;3.33;;;1.23;;
7410;SDS011;3747;48.628;9.058;2024-02-15T05:14:30;4.67;;;1.47;;
7410;SDS011;3747;48.628;9.058;2024-02-15T05:16:57;4.30;;;1.50;;
7410;SDS011;3747;48.628;9.058;2024-02-15T05:19:25;4.27;;;1.93;;
7410;SDS011;3747;48.628;9.058;2024-02-15T05:21:54;2.53;;;1.73;;
7410;SDS011;3747;48.628;9.058;2024-02-15T05:24:21;1.87;;;1.57;;
7410;SDS011;3747;48.628;9.058;2024-02-15T05:26:48;3.87;;;1.73;;
7410;SDS011;3747;48.628;9.058;2024-02-15T05:29:15;3.80;;;1.63;;
7410;SDS011;3747;48.628;9.058;2024-02-15T05:31:42;11.53;;;7.00;;
7410;SDS011;3747;48.628;9.058;2024-02-15T05:34:10;26.23;;;13.17;;
7410;SDS011;3747;48.628;9.058;2024-02-15T05:36:38;6.53;;;5.03;;
7410;SDS011;3747;48.628;9.058;2024-02-15T05:39:05;2.60;;;1.93;;
7410;SDS011;3747;48.628;9.058;2024-02-15T05:41:33;4.60;;;3.80;;
7410;SDS011;3747;48.628;9.058;2024-02-15T05:44:00;2.07;;;1.97;;
7410;SDS011;3747;48.628;9.058;2024-02-15T05:46:29;2.87;;;2.10;;
7410;SDS011;3747;48.628;9.058;2024-02-15T05:48:56;4.43;;;2.40;;
7410;SDS011;3747;48.628;9.058;2024-02-15T05:51:22;2.30;;;2.10;;
7410;SDS011;3747;48.628;9.058;2024-02-15T05:53:50;2.87;;;2.57;;
7410;SDS011;3747;48.628;9.058;2024-02-15T05:56:23;2.53;;;2.00;;
7410;SDS011;3747;48.628;9.058;2024-02-15T05:58:51;1.93;;;1.70;;
7410;SDS011;3747;48.628;9.058;2024-02-15T06:01:17;3.07;;;2.10;;
7410;SDS011;3747;48.628;9.058;2024-02-15T06:03:44;1.90;;;1.70;;
7410;SDS011;3747;48.628;9.058;2024-02-15T06:06:13;2.17;;;1.97;;
7410;SDS011;3747;48.628;9.058;2024-02-15T06:08:39;2.83;;;1.60;;
7410;SDS011;3747;48.628;9.058;2024-02-15T06:11:07;3.10;;;1.50;;
7410;SDS011;3747;48.628;9.058;2024-02-15T06:13:35;1.70;;;1.60;;
7410;SDS011;3747;48.628;9.058;2024-02-15T06:16:02;2.60;;;2.13;;
7410;SDS011;3747;48.628;9.058;2024-02-15T06:18:34;4.77;;;2.70;;
7410;SDS011;3747;48.628;9.058;2024-02-15T06:21:00;4.67;;;2.40;;
7410;SDS011;3747;48.628;9.058;2024-02-15T06:23:27;2.70;;;2.07;;
7410;SDS011;3747;48.628;9.058;2024-02-15T06:25:55;5.37;;;2.97;;
7410;SDS011;3747;48.628;9.058;2024-02-15T06:28:24;5.03;;;2.37;;
7410;SDS011;3747;48.628;9.058;2024-02-15T06:31:09;3.70;;;2.27;;
7410;SDS011;3747;48.628;9.058;2024-02-15T06:33:54;2.20;;;2.00;;
7410;SDS011;3747;48.628;9.058;2024-02-15T06:36:39;4.20;;;2.03;;
7410;SDS011;3747;48.628;9.058;2024-02-15T06:39:23;3.97;;;1.97;;
7410;SDS011;3747;48.628;9.058;2024-02-15T06:42:06;3.07;;;2.33;;
7410;SDS011;3747;48.628;9.058;2024-02-15T06:44:35;2.23;;;2.03;;
7410;SDS011;3747;48.628;9.058;2024-02-15T06:47:01;1.80;;;1.70;;
7410;SDS011;3747;48.628;9.058;2024-02-15T06:49:28;3.07;;;2.30;;
7410;SDS011;3747;48.628;9.058;2024-02-15T06:51:54;2.60;;;2.30;;
7410;SDS011;3747;48.628;9.058;2024-02-15T06:54:21;4.43;;;2.10;;
7410;SDS011;3747;48.628;9.058;2024-02-15T06:56:48;2.40;;;2.13;;
7410;SDS011;3747;48.628;9.058;2024-02-15T06:59:17;4.30;;;2.07;;
7410;SDS011;3747;48.628;9.058;2024-02-15T07:01:45;3.40;;;2.70;;
7410;SDS011;3747;48.628;9.058;2024-02-15T07:04:12;4.17;;;2.50;;
7410;SDS011;3747;48.628;9.058;2024-02-15T07:06:39;3.03;;;2.07;;
7410;SDS011;3747;48.628;9.058;2024-02-15T07:09:09;4.33;;;2.73;;
7410;SDS011;3747;48.628;9.058;2024-02-15T07:11:36;5.17;;;2.47;;
7410;SDS011;3747;48.628;9.058;2024-02-15T07:14:03;3.70;;;2.50;;
7410;SDS011;3747;48.628;9.058;2024-02-15T07:16:32;2.90;;;2.60;;
7410;SDS011;3747;48.628;9.058;2024-02-15T07:19:00;3.97;;;2.40;;
7410;SDS011;3747;48.628;9.058;2024-02-15T07:21:28;4.20;;;2.20;;
7410;SDS011;3747;48.628;9.058;2024-02-15T07:23:56;3.03;;;2.30;;
7410;SDS011;3747;48.628;9.058;2024-02-15T07:26:24;2.30;;;2.13;;
7410;SDS011;3747;48.628;9.058;2024-02-15T07:28:51;2.43;;;1.93;;
7410;SDS011;3747;48.628;9.058;2024-02-15T07:31:18;2.83;;;2.00;;
7410;SDS011;3747;48.628;9.058;2024-02-15T07:33:46;3.10;;;1.70;;
7410;SDS011;3747;48.628;9.058;2024-02-15T07:36:15;3.33;;;1.70;;
7410;SDS011;3747;48.628;9.058;2024-02-15T07:38:44;2.33;;;1.57;;
7410;SDS011;3747;48.628;9.058;2024-02-15T07:41:13;3.20;;;2.20;;
7410;SDS011;3747;48.628;9.058;2024-02-15T07:43:40;3.80;;;1.97;;
7410;SDS011;3747;48.628;9.058;2024-02-15T07:46:06;2.20;;;1.60;;
7410;SDS011;3747;48.628;9.058;2024-02-15T07:48:33;2.60;;;2.27;;
7410;SDS011;3747;48.628;9.058;2024-02-15T07:51:00;2.10;;;1.60;;
7410;SDS011;3747;48.628;9.058;2024-02-15T07:53:28;2.53;;;1.40;;
7410;SDS011;3747;48.628;9.058;2024-02-15T07:55:56;2.03;;;1.33;;
7410;SDS011;3747;48.628;9.058;2024-02-15T07:58:23;2.57;;;2.00;;
7410;SDS011;3747;48.628;9.058;2024-02-15T08:00:50;3.23;;;2.87;;
7410;SDS011;3747;48.628;9.058;2024-02-15T08:03:16;4.10;;;3.53;;
7410;SDS011;3747;48.628;9.058;2024-02-15T08:05:43;7.83;;;4.47;;
7410;SDS011;3747;48.628;9.058;2024-02-15T08:08:10;4.80;;;3.90;;
7410;SDS011;3747;48.628;9.058;2024-02-15T08:10:38;5.07;;;4.07;;
7410;SDS011;3747;48.628;9.058;2024-02-15T08:13:04;4.40;;;3.20;;
7410;SDS011;3747;48.628;9.058;2024-02-15T08:15:31;3.63;;;3.23;;
7410;SDS011;3747;48.628;9.058;2024-02-15T08:17:58;2.93;;;2.40;;
7410;SDS011;3747;48.628;9.058;2024-02-15T08:20:25;2.27;;;1.97;;
7410;SDS011;3747;48.628;9.058;2024-02-15T08:22:56;2.43;;;1.33;;
7410;SDS011;3747;48.628;9.058;2024-02-15T08:25:24;2.20;;;1.33;;
7410;SDS011;3747;48.628;9.058;2024-02-15T08:27:52;1.30;;;1.20;;
7410;SDS011;3747;48.628;9.058;2024-02-15T08:30:19;2.77;;;1.50;;
7410;SDS011;3747;48.628;9.058;2024-02-15T08:32:46;1.70;;;1.43;;
7410;SDS011;3747;48.628;9.058;2024-02-15T08:35:14;3.03;;;1.20;;
7410;SDS011;3747;48.628;9.058;2024-02-15T08:37:40;1.63;;;1.27;;
7410;SDS011;3747;48.628;9.058;2024-02-15T08:40:10;2.30;;;1.27;;
7410;SDS011;3747;48.628;9.058;2024-02-15T08:42:40;0.97;;;0.90;;
7410;SDS011;3747;48.628;9.058;2024-02-15T08:45:10;3.10;;;0.90;;
7410;SDS011;3747;48.628;9.058;2024-02-15T08:47:37;1.10;;;1.00;;
7410;SDS011;3747;48.628;9.058;2024-02-15T08:50:11;1.97;;;1.13;;
7410;SDS011;3747;48.628;9.058;2024-02-15T08:52:38;3.40;;;1.57;;
7410;SDS011;3747;48.628;9.058;2024-02-15T08:55:06;3.67;;;1.30;;
7410;SDS011;3747;48.628;9.058;2024-02-15T08:57:34;1.03;;;0.97;;
7410;SDS011;3747;48.628;9.058;2024-02-15T09:00:03;3.50;;;0.93;;
7410;SDS011;3747;48.628;9.058;2024-02-15T09:02:37;4.57;;;1.10;;
7410;SDS011;3747;48.628;9.058;2024-02-15T09:05:03;1.13;;;1.03;;
7410;SDS011;3747;48.628;9.058;2024-02-15T09:07:30;1.90;;;1.23;;
7410;SDS011;3747;48.628;9.058;2024-02-15T09:09:57;2.10;;;1.03;;
7410;SDS011;3747;48.628;9.058;2024-02-15T09:12:24;1.43;;;1.00;;
7410;SDS011;3747;48.628;9.058;2024-02-15T09:14:51;1.60;;;0.77;;
7410;SDS011;3747;48.628;9.058;2024-02-15T09:17:17;2.07;;;0.97;;
7410;SDS011;3747;48.628;9.058;2024-02-15T09:19:47;2.43;;;1.13;;
7410;SDS011;3747;48.628;9.058;2024-02-15T09:22:15;2.53;;;0.90;;
7410;SDS011;3747;48.628;9.058;2024-02-15T09:24:43;3.57;;;2.03;;
7410;SDS011;3747;48.628;9.058;2024-02-15T09:27:09;1.50;;;0.90;;
7410;SDS011;3747;48.628;9.058;2024-02-15T09:29:37;7.27;;;4.47;;
7410;SDS011;3747;48.628;9.058;2024-02-15T09:32:05;6.63;;;3.97;;
7410;SDS011;3747;48.628;9.058;2024-02-15T09:34:32;6.50;;;3.40;;
7410;SDS011;3747;48.628;9.058;2024-02-15T09:37:00;7.93;;;3.83;;
7410;SDS011;3747;48.628;9.058;2024-02-15T09:39:27;5.70;;;3.10;;
7410;SDS011;3747;48.628;9.058;2024-02-15T09:41:54;4.43;;;2.93;;
7410;SDS011;3747;48.628;9.058;2024-02-15T09:44:23;6.63;;;3.80;;
7410;SDS011;3747;48.628;9.058;2024-02-15T09:46:54;5.03;;;2.50;;
7410;SDS011;3747;48.628;9.058;2024-02-15T09:49:28;7.03;;;2.10;;
7410;SDS011;3747;48.628;9.058;2024-02-15T09:51:55;2.93;;;1.20;;
7410;SDS011;3747;48.628;9.058;2024-02-15T09:54:26;1.80;;;1.30;;
7410;SDS011;3747;48.628;9.058;2024-02-15T09:56:54;2.00;;;1.67;;
7410;SDS011;3747;48.628;9.058;2024-02-15T09:59:22;0.90;;;0.80;;
7410;SDS011;3747;48.628;9.058;2024-02-15T10:01:49;3.80;;;2.10;;
7410;SDS011;3747;48.628;9.058;2024-02-15T10:04:17;5.97;;;2.20;;
7410;SDS011;3747;48.628;9.058;2024-02-15T10:06:44;1.40;;;0.93;;
7410;SDS011;3747;48.628;9.058;2024-02-15T10:09:23;1.63;;;0.90;;
7410;SDS011;3747;48.628;9.058;2024-02-15T10:11:54;3.73;;;1.00;;
7410;SDS011;3747;48.628;9.058;2024-02-15T10:14:22;1.30;;;0.60;;
7410;SDS011;3747;48.628;9.058;2024-02-15T10:16:49;1.53;;;0.80;;
7410;SDS011;3747;48.628;9.058;2024-02-15T10:19:17;2.97;;;0.80;;
7410;SDS011;3747;48.628;9.058;2024-02-15T10:21:45;1.33;;;0.70;;
7410;SDS011;3747;48.628;9.058;2024-02-15T10:24:12;1.77;;;0.97;;
7410;SDS011;3747;48.628;9.058;2024-02-15T10:26:39;2.43;;;0.67;;
7410;SDS011;3747;48.628;9.058;2024-02-15T10:29:07;0.80;;;0.70;;
7410;SDS011;3747;48.628;9.058;2024-02-15T10:31:35;3.33;;;0.60;;
7410;SDS011;3747;48.628;9.058;2024-02-15T10:34:03;2.10;;;0.70;;
7410;SDS011;3747;48.628;9.058;2024-02-15T10:36:32;0.70;;;0.60;;
7410;SDS011;3747;48.628;9.058;2024-02-15T10:39:12;1.97;;;0.60;;
7410;SDS011;3747;48.628;9.058;2024-02-15T10:41:44;1.37;;;0.63;;
7410;SDS011;3747;48.628;9.058;2024-02-15T10:44:15;2.37;;;0.60;;
7410;SDS011;3747;48.628;9.058;2024-02-15T10:46:44;2.37;;;0.50;;
7410;SDS011;3747;48.628;9.058;2024-02-15T10:49:15;0.53;;;0.50;;
7410;SDS011;3747;48.628;9.058;2024-02-15T10:51:43;3.03;;;0.50;;
7410;SDS011;3747;48.628;9.058;2024-02-15T10:54:11;2.03;;;0.50;;
7410;SDS011;3747;48.628;9.058;2024-02-15T10:56:42;1.43;;;0.87;;
7410;SDS011;3747;48.628;9.058;2024-02-15T10:59:14;0.60;;;0.60;;
7410;SDS011;3747;48.628;9.058;2024-02-15T11:01:45;2.67;;;0.30;;
7410;SDS011;3747;48.628;9.058;2024-02-15T11:04:15;0.43;;;0.43;;
7410;SDS011;3747;48.628;9.058;2024-02-15T11:06:46;1.30;;;0.63;;
7410;SDS011;3747;48.628;9.058;2024-02-15T11:09:16;1.07;;;0.60;;
7410;SDS011;3747;48.628;9.058;2024-02-15T11:11:44;2.43;;;0.80;;
7410;SDS011;3747;48.628;9.058;2024-02-15T11:14:26;3.27;;;1.00;;
7410;SDS011;3747;48.628;9.058;2024-02-15T11:16:53;2.10;;;0.73;;
7410;SDS011;3747;48.628;9.058;2024-02-15T11:19:39;2.53;;;0.80;;
7410;SDS011;3747;48.628;9.058;2024-02-15T11:22:07;1.53;;;0.57;;
7410;SDS011;3747;48.628;9.058;2024-02-15T11:24:35;1.13;;;0.40;;
7410;SDS011;3747;48.628;9.058;2024-02-15T11:27:04;0.60;;;0.50;;
7410;SDS011;3747;48.628;9.058;2024-02-15T11:29:52;2.93;;;0.60;;
7410;SDS011;3747;48.628;9.058;2024-02-15T11:32:36;2.10;;;0.50;;
7410;SDS011;3747;48.628;9.058;2024-02-15T11:35:05;1.23;;;0.40;;
7410;SDS011;3747;48.628;9.058;2024-02-15T11:43:45;0.97;;;0.47;;
7410;SDS011;3747;48.628;9.058;2024-02-15T11:46:21;1.13;;;0.60;;
7410;SDS011;3747;48.628;9.058;2024-02-15T11:48:49;0.90;;;0.63;;
7410;SDS011;3747;48.628;9.058;2024-02-15T11:51:27;0.60;;;0.50;;
7410;SDS011;3747;48.628;9.058;2024-02-15T11:54:02;1.90;;;0.53;;
7410;SDS011;3747;48.628;9.058;2024-02-15T11:56:31;1.03;;;0.60;;
7410;SDS011;3747;48.628;9.058;2024-02-15T11:59:16;1.37;;;0.87;;
7410;SDS011;3747;48.628;9.058;2024-02-15T12:01:55;1.43;;;0.53;;
7410;SDS011;3747;48.628;9.058;2024-02-15T12:04:39;2.70;;;0.70;;
7410;SDS011;3747;48.628;9.058;2024-02-15T12:07:24;0.73;;;0.43;;
7410;SDS011;3747;48.628;9.058;2024-02-15T12:10:14;1.47;;;0.70;;
7410;SDS011;3747;48.628;9.058;2024-02-15T12:12:59;0.50;;;0.50;;
7410;SDS011;3747;48.628;9.058;2024-02-15T12:15:55;3.03;;;0.60;;
7410;SDS011;3747;48.628;9.058;2024-02-15T12:18:41;1.00;;;0.50;;
7410;SDS011;3747;48.628;9.058;2024-02-15T12:21:09;1.40;;;0.60;;
7410;SDS011;3747;48.628;9.058;2024-02-15T12:23:38;3.00;;;0.60;;
7410;SDS011;3747;48.628;9.058;2024-02-15T12:26:06;1.87;;;0.57;;
7410;SDS011;3747;48.628;9.058;2024-02-15T12:28:34;3.27;;;0.67;;
7410;SDS011;3747;48.628;9.058;2024-02-15T12:31:01;0.83;;;0.73;;
7410;SDS011;3747;48.628;9.058;2024-02-15T12:33:31;0.83;;;0.73;;
7410;SDS011;3747;48.628;9.058;2024-02-15T12:36:09;1.37;;;0.70;;
7410;SDS011;3747;48.628;9.058;2024-02-15T12:38:36;1.70;;;0.77;;
7410;SDS011;3747;48.628;9.058;2024-02-15T12:41:03;1.03;;;0.53;;
7410;SDS011;3747;48.628;9.058;2024-02-15T12:43:42;2.13;;;0.80;;
7410;SDS011;3747;48.628;9.058;2024-02-15T12:46:09;3.90;;;0.47;;
7410;SDS011;3747;48.628;9.058;2024-02-15T12:48:37;1.17;;;0.50;;
7410;SDS011;3747;48.628;9.058;2024-02-15T12:51:14;2.13;;;0.70;;
7410;SDS011;3747;48.628;9.058;2024-02-15T12:53:41;1.80;;;0.80;;
7410;SDS011;3747;48.628;9.058;2024-02-15T12:56:08;1.50;;;0.67;;
7410;SDS011;3747;48.628;9.058;2024-02-15T12:58:35;2.23;;;0.67;;
7410;SDS011;3747;48.628;9.058;2024-02-15T13:01:04;0.70;;;0.60;;
7410;SDS011;3747;48.628;9.058;2024-02-15T13:03:31;2.17;;;0.83;;
7410;SDS011;3747;48.628;9.058;2024-02-15T13:05:57;1.43;;;0.70;;
7410;SDS011;3747;48.628;9.058;2024-02-15T13:08:26;0.53;;;0.53;;
7410;SDS011;3747;48.628;9.058;2024-02-15T13:10:52;0.70;;;0.70;;
7410;SDS011;3747;48.628;9.058;2024-02-15T13:13:19;1.13;;;0.70;;
7410;SDS011;3747;48.628;9.058;2024-02-15T13:15:46;0.83;;;0.70;;
7410;SDS011;3747;48.628;9.058;2024-02-15T13:18:13;2.90;;;1.00;;
7410;SDS011;3747;48.628;9.058;2024-02-15T13:20:40;0.70;;;0.70;;
7410;SDS011;3747;48.628;9.058;2024-02-15T13:23:07;1.33;;;0.80;;
7410;SDS011;3747;48.628;9.058;2024-02-15T13:25:36;2.73;;;0.73;;
7410;SDS011;3747;48.628;9.058;2024-02-15T13:28:04;1.40;;;0.80;;
7410;SDS011;3747;48.628;9.058;2024-02-15T13:30:33;2.27;;;1.10;;
7410;SDS011;3747;48.628;9.058;2024-02-15T13:33:00;1.23;;;0.77;;
7410;SDS011;3747;48.628;9.058;2024-02-15T13:35:27;1.00;;;0.80;;
7410;SDS011;3747;48.628;9.058;2024-02-15T13:37:55;2.60;;;0.90;;
7410;SDS011;3747;48.628;9.058;2024-02-15T13:40:23;3.00;;;1.10;;
7410;SDS011;3747;48.628;9.058;2024-02-15T13:42:52;1.40;;;0.90;;
7410;SDS011;3747;48.628;9.058;2024-02-15T13:45:23;3.17;;;1.27;;
7410;SDS011;3747;48.628;9.058;2024-02-15T13:47:55;2.20;;;1.40;;
7410;SDS011;3747;48.628;9.058;2024-02-15T13:50:22;1.33;;;1.10;;
7410;SDS011;3747;48.628;9.058;2024-02-15T13:52:50;2.07;;;1.00;;
7410;SDS011;3747;48.628;9.058;2024-02-15T13:55:17;3.60;;;0.93;;
7410;SDS011;3747;48.628;9.058;2024-02-15T13:57:45;0.83;;;0.73;;
7410;SDS011;3747;48.628;9.058;2024-02-15T14:00:15;3.07;;;0.93;;
7410;SDS011;3747;48.628;9.058;2024-02-15T14:02:47;1.80;;;0.80;;
7410;SDS011;3747;48.628;9.058;2024-02-15T14:05:14;2.50;;;0.90;;
7410;SDS011;3747;48.628;9.058;2024-02-15T14:07:44;0.90;;;0.80;;
7410;SDS011;3747;48.628;9.058;2024-02-15T14:10:15;1.67;;;1.30;;
7410;SDS011;3747;48.628;9.058;2024-02-15T14:12:44;1.00;;;0.90;;
7410;SDS011;3747;48.628;9.058;2024-02-15T14:15:11;2.17;;;1.20;;
7410;SDS011;3747;48.628;9.058;2024-02-15T14:17:39;1.87;;;0.97;;
7410;SDS011;3747;48.628;9.058;2024-02-15T14:20:06;0.93;;;0.67;;
7410;SDS011;3747;48.628;9.058;2024-02-15T14:22:38;1.33;;;0.60;;
7410;SDS011;3747;48.628;9.058;2024-02-15T14:25:05;1.10;;;0.90;;
7410;SDS011;3747;48.628;9.058;2024-02-15T14:27:32;2.10;;;1.10;;
7410;SDS011;3747;48.628;9.058;2024-02-15T14:29:59;2.70;;;0.67;;
7410;SDS011;3747;48.628;9.058;2024-02-15T14:32:45;0.80;;;0.60;;
7410;SDS011;3747;48.628;9.058;2024-02-15T14:35:29;4.20;;;0.87;;
7410;SDS011;3747;48.628;9.058;2024-02-15T14:37:59;0.70;;;0.70;;
7410;SDS011;3747;48.628;9.058;2024-02-15T14:40:28;0.60;;;0.60;;
7410;SDS011;3747;48.628;9.058;2024-02-15T14:42:54;1.50;;;1.00;;
7410;SDS011;3747;48.628;9.058;2024-02-15T14:45:21;1.50;;;0.90;;
7410;SDS011;3747;48.628;9.058;2024-02-15T14:47:50;1.07;;;0.80;;
7410;SDS011;3747;48.628;9.058;2024-02-15T14:50:17;2.00;;;1.23;;
7410;SDS011;3747;48.628;9.058;2024-02-15T14:52:45;2.27;;;0.80;;
7410;SDS011;3747;48.628;9.058;2024-02-15T14:55:12;1.40;;;1.00;;
7410;SDS011;3747;48.628;9.058;2024-02-15T14:57:39;1.40;;;1.20;;
7410;SDS011;3747;48.628;9.058;2024-02-15T15:00:06;1.33;;;0.87;;
7410;SDS011;3747;48.628;9.058;2024-02-15T15:02:38;0.80;;;0.80;;
7410;SDS011;3747;48.628;9.058;2024-02-15T15:05:08;0.87;;;0.80;;
7410;SDS011;3747;48.628;9.058;2024-02-15T15:07:52;2.67;;;1.10;;
7410;SDS011;3747;48.628;9.058;2024-02-15T15:10:37;2.27;;;1.03;;
7410;SDS011;3747;48.628;9.058;2024-02-15T15:13:21;1.60;;;0.80;;
7410;SDS011;3747;48.628;9.058;2024-02-15T15:15:48;1.40;;;0.80;;
7410;SDS011;3747;48.628;9.058;2024-02-15T15:18:14;2.13;;;1.03;;
7410;SDS011;3747;48.628;9.058;2024-02-15T15:20:44;1.73;;;0.87;;
7410;SDS011;3747;48.628;9.058;2024-02-15T15:23:10;1.23;;;0.83;;
7410;SDS011;3747;48.628;9.058;2024-02-15T15:25:38;2.57;;;1.00;;
7410;SDS011;3747;48.628;9.058;2024-02-15T15:28:05;1.70;;;1.10;;
7410;SDS011;3747;48.628;9.058;2024-02-15T15:30:32;0.80;;;0.80;;
7410;SDS011;3747;48.628;9.058;2024-02-15T15:32:59;2.27;;;0.93;;